< < Back
Terminal Aerodrome Forecast


Current Version              Previous Versions:   1  2  3  4  5  6  7  8  9  

Terminal Aerodrome Forecast

587
FTUS42 KTAE 231200 AAC
TAFVLD
TAF AMD
KVLD 231207Z 2312/2412 00000KT P6SM SCT001
     FM231300 22005KT P6SM SCT040
     FM240000 00000KT P6SM SKC=

Latest METAR

238
SAUS70 KWBC 240600 RRL
MTRVLD
METAR KVLD 240553Z AUTO 00000KT 10SM CLR 25/22 A3002 RMK AO2 SLP169
T02500222 10317 20250 58002


USA.gov is the U.S. government's official web portal to all federal, state and local government web resources and services.